Time;durP1;ratioP1;P1;durP2;ratioP2;P2;SDS_P1;SDS_P2;PMS_P1;PMS_P2;Temp;Humidity;BMP_temperature;BMP_pressure;BME280_temperature;BME280_humidity;BME280_pressure;Samples;Min_cycle;Max_cycle;Signal;HPM_P1;HPM_P2
2024/03/28 00:00:31;;;;;;;4.72;3.60;;;11.40;99.90;;;;;;4995910;28;20110;-94
2024/03/28 00:08:07;;;;;;;5.90;3.30;;;10.20;99.90;;;;;;5156588;23;20089;-93
2024/03/28 00:10:33;;;;;;;4.65;3.80;;;10.20;99.90;;;;;;5037392;28;20107;-93
2024/03/28 00:13:01;;;;;;;3.28;2.97;;;10.90;99.90;;;;;;5037189;28;20026;-94
2024/03/28 00:15:27;;;;;;;3.72;3.20;;;11.10;99.90;;;;;;5035566;28;20033;-93
2024/03/28 00:17:53;;;;;;;3.75;3.40;;;9.80;99.90;;;;;;5022458;28;20042;-93
2024/03/28 00:22:57;;;;;;;4.60;3.05;;;10.00;99.90;;;;;;5105696;23;20050;-93
2024/03/28 00:25:23;;;;;;;3.95;3.47;;;10.10;99.90;;;;;;5031461;28;20033;-93
2024/03/28 00:27:48;;;;;;;3.47;3.17;;;11.50;99.90;;;;;;5030204;28;20037;-96
2024/03/28 00:30:15;;;;;;;3.35;2.67;;;10.70;99.90;;;;;;5019352;28;20429;-95
2024/03/28 00:32:41;;;;;;;7.63;3.45;;;9.10;99.90;;;;;;5015044;28;20085;-94
2024/03/28 00:35:07;;;;;;;2.75;2.55;;;11.60;99.90;;;;;;5014787;28;20033;-93
2024/03/28 00:37:32;;;;;;;4.20;2.97;;;10.00;99.90;;;;;;5013753;28;20076;-94
2024/03/28 00:39:58;;;;;;;2.92;2.72;;;9.80;99.90;;;;;;5006482;28;20034;-93
2024/03/28 00:42:23;;;;;;;2.83;2.63;;;10.00;99.90;;;;;;5014360;28;20060;-94
2024/03/28 00:44:51;;;;;;;4.45;2.97;;;9.80;99.90;;;;;;5019451;28;20172;-93
2024/03/28 00:47:17;;;;;;;3.67;2.63;;;10.60;99.90;;;;;;5033354;28;20797;-87
2024/03/28 00:49:42;;;;;;;2.85;2.65;;;11.40;99.90;;;;;;5032200;28;20057;-93
2024/03/28 00:52:08;;;;;;;6.97;2.92;;;10.10;99.90;;;;;;5019308;28;20030;-93
2024/03/28 00:54:34;;;;;;;7.57;2.72;;;11.40;99.90;;;;;;5017593;28;20049;-92
2024/03/28 00:57:02;;;;;;;2.83;2.40;;;10.60;99.90;;;;;;5016444;28;20033;-92
2024/03/28 00:59:31;;;;;;;2.97;2.67;;;11.10;99.90;;;;;;5016113;28;20100;-95
2024/03/28 01:01:58;;;;;;;3.88;2.50;;;11.30;99.90;;;;;;5015249;28;20037;-96
2024/03/28 01:04:23;;;;;;;2.72;2.50;;;9.90;99.90;;;;;;5019089;28;20473;-93
2024/03/28 01:06:51;;;;;;;4.00;2.95;;;11.10;99.90;;;;;;5012651;28;20030;-92
2024/03/28 01:09:17;;;;;;;2.92;2.47;;;9.20;99.90;;;;;;5003601;28;20037;-94
2024/03/28 01:11:43;;;;;;;3.25;2.42;;;9.60;99.90;;;;;;5019747;28;20038;-93
2024/03/28 01:14:08;;;;;;;3.03;2.83;;;9.40;99.90;;;;;;5034752;28;20026;-93
2024/03/28 01:16:35;;;;;;;5.38;2.50;;;10.10;99.90;;;;;;5037696;28;20010;-94
2024/03/28 01:19:00;;;;;;;2.60;2.40;;;10.30;99.90;;;;;;5024257;28;20054;-93
2024/03/28 01:21:26;;;;;;;2.72;2.00;;;11.30;99.90;;;;;;5022714;28;20025;-94
2024/03/28 01:24:10;;;;;;;2.63;2.30;;;9.60;99.90;;;;;;5011437;28;20094;-93
2024/03/28 01:26:36;;;;;;;2.22;2.03;;;9.60;99.90;;;;;;5006064;28;20054;-93
2024/03/28 01:29:03;;;;;;;3.17;2.20;;;9.50;99.90;;;;;;5011499;28;20018;-93
2024/03/28 01:31:29;;;;;;;2.22;2.03;;;11.00;99.90;;;;;;5007842;28;20024;-94
2024/03/28 01:33:54;;;;;;;2.83;2.42;;;9.50;99.90;;;;;;4999462;28;20039;-94
2024/03/28 01:36:21;;;;;;;3.30;2.17;;;10.30;99.90;;;;;;5002886;28;20722;-93
2024/03/28 01:38:48;;;;;;;2.83;2.35;;;10.40;99.90;;;;;;4986249;28;20462;-93
2024/03/28 01:41:14;;;;;;;2.92;2.30;;;9.00;99.90;;;;;;5015123;28;20078;-94
2024/03/28 01:43:42;;;;;;;3.35;2.38;;;11.00;99.90;;;;;;5012777;28;20034;-94
2024/03/28 01:46:07;;;;;;;3.97;2.10;;;9.50;99.90;;;;;;5002648;28;20041;-94
2024/03/28 01:48:34;;;;;;;3.22;2.42;;;9.40;99.90;;;;;;4996575;28;20030;-94
2024/03/28 01:51:04;;;;;;;3.08;2.10;;;9.70;99.90;;;;;;4997064;28;20034;-93
2024/03/28 01:53:35;;;;;;;4.90;2.13;;;9.50;99.90;;;;;;5009407;28;20030;-94
2024/03/28 01:56:02;;;;;;;3.83;2.25;;;9.70;99.90;;;;;;5004518;28;20046;-93
2024/03/28 01:58:29;;;;;;;3.45;2.20;;;9.50;99.90;;;;;;5000532;28;20026;-94
2024/03/28 02:00:55;;;;;;;3.65;2.28;;;9.40;99.90;;;;;;5001387;28;20532;-95
2024/03/28 02:03:20;;;;;;;2.13;1.92;;;9.40;99.90;;;;;;5001865;28;20045;-95
2024/03/28 02:05:53;;;;;;;3.38;2.38;;;9.30;99.90;;;;;;5009898;28;20026;-94
2024/03/28 02:08:27;;;;;;;2.75;2.03;;;9.60;99.90;;;;;;5013423;28;20038;-94
2024/03/28 02:10:56;;;;;;;4.00;2.38;;;9.50;99.90;;;;;;5009964;28;20042;-96
2024/03/28 02:13:27;;;;;;;3.33;2.28;;;9.70;99.90;;;;;;5009946;28;20036;-94
2024/03/28 02:15:57;;;;;;;2.60;2.20;;;10.60;99.90;;;;;;5009650;28;20026;-93
2024/03/28 02:18:31;;;;;;;3.47;2.03;;;9.20;99.90;;;;;;5010051;28;20034;-94
2024/03/28 02:24:06;;;;;;;3.50;2.15;;;9.40;99.90;;;;;;5016597;28;20046;-94
2024/03/28 02:26:32;;;;;;;3.83;2.35;;;9.40;99.90;;;;;;5010021;28;20049;-94
2024/03/28 02:28:58;;;;;;;2.53;2.33;;;9.70;99.90;;;;;;4990424;28;20479;-93
2024/03/28 02:31:24;;;;;;;3.08;2.20;;;9.40;99.90;;;;;;4992770;28;20089;-93
2024/03/28 02:33:52;;;;;;;2.15;2.00;;;9.40;99.90;;;;;;4990869;28;20031;-92
2024/03/28 02:36:18;;;;;;;2.15;1.83;;;9.30;99.90;;;;;;5000368;28;20023;-93
2024/03/28 02:38:47;;;;;;;4.88;2.40;;;10.40;99.90;;;;;;4999114;28;20038;-93
2024/03/28 02:41:13;;;;;;;3.47;2.63;;;8.90;99.90;;;;;;5001162;28;20039;-94
2024/03/28 02:43:38;;;;;;;2.75;2.10;;;9.20;99.90;;;;;;4992816;28;20031;-95
2024/03/28 02:46:04;;;;;;;2.65;2.45;;;9.50;99.90;;;;;;4996364;28;20029;-94
2024/03/28 02:48:30;;;;;;;2.22;2.08;;;9.20;99.90;;;;;;5010657;28;20045;-94
2024/03/28 02:50:58;;;;;;;3.35;2.13;;;7.90;99.90;;;;;;5010186;28;20607;-93
2024/03/28 02:53:26;;;;;;;2.53;2.33;;;10.00;99.90;;;;;;5010944;28;20152;-93
2024/03/28 02:55:52;;;;;;;3.05;2.50;;;9.10;99.90;;;;;;4994829;28;20034;-95
2024/03/28 02:58:57;;;;;;;5.72;2.72;;;7.70;99.90;;;;;;4989861;28;20115;-93
2024/03/28 03:01:22;;;;;;;4.35;2.70;;;9.70;99.90;;;;;;4997025;28;20017;-93
2024/03/28 03:03:48;;;;;;;4.60;2.53;;;10.70;99.90;;;;;;4999492;28;20031;-95
2024/03/28 03:06:14;;;;;;;3.03;2.63;;;9.50;99.90;;;;;;4991157;28;20375;-94
2024/03/28 03:08:39;;;;;;;5.97;2.60;;;9.70;99.90;;;;;;4981697;28;20063;-95
2024/03/28 03:11:05;;;;;;;2.72;2.53;;;8.70;99.90;;;;;;4989110;28;20083;-95
2024/03/28 03:13:31;;;;;;;2.78;2.55;;;9.50;99.90;;;;;;5003761;28;20037;-92
2024/03/28 03:15:57;;;;;;;2.60;2.40;;;9.30;99.90;;;;;;4998365;28;20027;-91
2024/03/28 03:18:26;;;;;;;2.50;2.30;;;10.40;99.90;;;;;;5000321;28;20027;-93
2024/03/28 03:21:04;;;;;;;2.88;2.40;;;9.80;99.90;;;;;;5002519;28;20030;-93
2024/03/28 03:23:37;;;;;;;2.67;2.15;;;9.20;99.90;;;;;;5000162;28;20046;-96
2024/03/28 03:26:12;;;;;;;2.63;2.42;;;9.30;99.90;;;;;;5000731;28;20033;-93
2024/03/28 03:34:36;;;;;;;2.75;2.40;;;10.10;99.90;;;;;;5002560;28;20046;-92
2024/03/28 03:37:50;;;;;;;3.08;2.70;;;9.10;99.90;;;;;;5009123;28;20027;-94
2024/03/28 03:40:24;;;;;;;2.83;2.60;;;9.90;99.90;;;;;;4994355;28;20564;-94
2024/03/28 03:42:50;;;;;;;2.63;2.42;;;11.10;99.90;;;;;;5009258;28;20129;-95
2024/03/28 03:45:25;;;;;;;7.25;2.80;;;10.40;99.90;;;;;;5012684;28;20023;-94
2024/03/28 03:47:51;;;;;;;4.18;2.58;;;10.10;99.90;;;;;;4980159;28;20046;-94
2024/03/28 03:50:20;;;;;;;5.00;2.45;;;9.70;99.90;;;;;;4988648;28;20042;-95
2024/03/28 03:52:59;;;;;;;;;;;;;;;;;;;;;
2024/03/28 03:55:30;;;;;;;2.80;2.47;;;9.70;99.90;;;;;;4986068;28;20550;-96
2024/03/28 03:57:57;;;;;;;2.75;2.13;;;9.20;99.90;;;;;;4987541;28;20034;-93
2024/03/28 04:00:52;;;;;;;2.70;2.42;;;9.40;99.90;;;;;;4995108;28;20035;-95
2024/03/28 04:03:20;;;;;;;2.15;1.98;;;10.70;99.90;;;;;;4946415;28;20034;-96
2024/03/28 04:05:49;;;;;;;4.25;2.47;;;9.10;99.90;;;;;;4973892;28;20045;-94
2024/03/28 04:08:15;;;;;;;5.75;2.35;;;11.10;99.90;;;;;;4973601;28;20074;-94
2024/03/28 04:10:43;;;;;;;3.38;2.15;;;10.40;99.90;;;;;;4989702;28;20018;-95
2024/03/28 04:13:16;;;;;;;3.28;2.40;;;9.90;99.90;;;;;;4988852;28;20034;-95
2024/03/28 04:15:47;;;;;;;2.30;2.15;;;10.20;99.90;;;;;;5011946;28;20026;-95
2024/03/28 04:18:50;;;;;;;2.95;2.30;;;9.20;99.90;;;;;;5009416;28;20031;-96
2024/03/28 04:21:21;;;;;;;3.08;2.30;;;10.10;99.90;;;;;;5011141;28;20042;-95
2024/03/28 04:23:50;;;;;;;4.22;2.22;;;10.60;99.90;;;;;;5003041;28;20046;-95
2024/03/28 04:26:22;;;;;;;3.35;2.00;;;9.30;99.90;;;;;;5000737;28;20047;-94
2024/03/28 04:28:56;;;;;;;2.33;2.08;;;10.90;99.90;;;;;;5016717;28;20022;-95
2024/03/28 04:31:26;;;;;;;1.80;1.70;;;10.10;99.90;;;;;;4995046;28;20092;-95
2024/03/28 04:33:54;;;;;;;3.15;1.95;;;8.90;99.90;;;;;;4974800;28;20038;-95
2024/03/28 04:36:30;;;;;;;3.10;2.20;;;9.90;99.90;;;;;;5010279;28;20034;-94
2024/03/28 04:38:57;;;;;;;3.30;2.50;;;8.90;99.90;;;;;;4994851;28;20046;-94
2024/03/28 04:50:24;;;;;;;2.55;2.08;;;9.00;99.90;;;;;;5076610;23;20054;-95
2024/03/28 05:03:14;;;;;;;2.47;2.08;;;8.80;99.90;;;;;;5465046;23;20034;-96
2024/03/28 05:05:42;;;;;;;2.53;2.28;;;9.00;99.90;;;;;;5015779;28;20006;-94
2024/03/28 05:08:10;;;;;;;2.72;2.30;;;11.10;99.90;;;;;;5016426;28;20030;-94
2024/03/28 05:10:38;;;;;;;4.28;2.30;;;8.70;99.90;;;;;;5017998;28;20021;-94
2024/03/28 05:13:04;;;;;;;2.58;2.38;;;9.90;99.90;;;;;;5015770;28;20042;-91
2024/03/28 05:15:31;;;;;;;4.20;3.03;;;10.50;99.90;;;;;;5004647;28;20041;-95
2024/03/28 05:28:39;;;;;;;3.03;2.33;;;8.70;99.90;;;;;;4971302;28;19938;-93
2024/03/28 05:31:13;;;;;;;2.88;2.50;;;9.30;99.90;;;;;;4959689;29;20039;-93
2024/03/28 05:33:39;;;;;;;3.17;2.70;;;9.20;99.90;;;;;;4959449;29;20063;-94
2024/03/28 05:36:05;;;;;;;3.72;2.70;;;10.50;99.90;;;;;;4968602;28;20081;-93
2024/03/28 05:38:30;;;;;;;2.70;2.50;;;9.00;99.90;;;;;;4978231;28;20050;-93
2024/03/28 05:40:57;;;;;;;2.40;2.20;;;9.50;99.90;;;;;;4950891;28;20035;-93
2024/03/28 05:43:22;;;;;;;2.75;2.55;;;10.20;99.90;;;;;;4945612;28;20036;-94
2024/03/28 05:45:55;;;;;;;2.90;2.70;;;8.80;99.90;;;;;;4973287;28;20052;-93
2024/03/28 05:48:21;;;;;;;4.72;2.33;;;10.30;99.90;;;;;;4980870;28;20031;-92
2024/03/28 05:50:46;;;;;;;3.72;2.63;;;8.60;99.90;;;;;;4979866;28;20030;-95
2024/03/28 05:53:14;;;;;;;2.50;2.30;;;9.00;99.90;;;;;;4960325;28;20046;-95
2024/03/28 05:55:41;;;;;;;5.47;2.60;;;9.70;99.90;;;;;;4956110;29;20054;-93
2024/03/28 05:58:07;;;;;;;2.83;2.50;;;9.30;99.90;;;;;;4961784;29;20024;-93
2024/03/28 06:00:33;;;;;;;3.13;2.80;;;9.20;99.90;;;;;;4964832;29;20542;-94
2024/03/28 06:02:59;;;;;;;3.38;2.80;;;10.50;99.90;;;;;;4968326;28;20030;-93
2024/03/28 06:05:24;;;;;;;5.15;2.33;;;8.80;99.90;;;;;;4964087;29;20049;-93
2024/03/28 06:07:50;;;;;;;2.42;2.22;;;8.80;99.90;;;;;;4962902;29;20034;-94
2024/03/28 06:10:16;;;;;;;2.50;2.30;;;7.20;99.90;;;;;;4965324;29;20062;-93
2024/03/28 06:12:41;;;;;;;3.45;2.42;;;8.80;99.90;;;;;;4981060;28;20058;-93
2024/03/28 06:15:07;;;;;;;3.47;3.17;;;10.00;99.90;;;;;;4989488;28;20209;-93
2024/03/28 06:17:35;;;;;;;3.10;2.80;;;9.50;99.90;;;;;;4977287;28;20454;-93
2024/03/28 06:20:01;;;;;;;2.72;2.35;;;7.40;99.90;;;;;;4962244;29;20031;-92
2024/03/28 06:22:34;;;;;;;2.78;2.58;;;8.90;99.90;;;;;;4965282;29;20484;-93
2024/03/28 06:24:59;;;;;;;2.50;2.30;;;10.20;99.90;;;;;;4972511;28;20070;-93
2024/03/28 06:27:25;;;;;;;4.82;2.85;;;8.70;99.90;;;;;;4950640;28;20047;-93
2024/03/28 06:29:51;;;;;;;3.72;2.47;;;10.40;99.90;;;;;;4974112;28;20127;-93
2024/03/28 06:32:29;;;;;;;2.50;2.30;;;9.50;99.90;;;;;;4980208;28;20031;-94
2024/03/28 06:34:58;;;;;;;2.80;2.30;;;9.10;99.90;;;;;;4969396;28;20039;-94
2024/03/28 06:37:27;;;;;;;11.38;2.45;;;10.20;99.90;;;;;;4990600;28;20019;-92
2024/03/28 06:39:54;;;;;;;2.85;2.40;;;10.10;99.90;;;;;;4961970;29;20023;-94
2024/03/28 06:42:20;;;;;;;2.30;2.10;;;8.50;99.90;;;;;;5032764;23;20050;-95
2024/03/28 06:44:48;;;;;;;4.63;2.70;;;8.90;99.90;;;;;;4981499;28;20102;-95
2024/03/28 06:47:14;;;;;;;5.75;3.03;;;9.10;99.90;;;;;;4988894;28;20035;-93
2024/03/28 06:49:40;;;;;;;4.40;2.47;;;8.90;99.90;;;;;;4988137;28;20023;-94
2024/03/28 06:52:06;;;;;;;5.65;2.38;;;9.00;99.90;;;;;;4990363;28;20030;-94
2024/03/28 06:54:32;;;;;;;3.65;3.30;;;9.00;99.90;;;;;;4990201;28;20039;-94
2024/03/28 06:56:58;;;;;;;3.55;2.47;;;9.00;99.90;;;;;;4990107;28;20023;-94
2024/03/28 06:59:24;;;;;;;2.40;2.10;;;9.20;99.90;;;;;;4981188;28;20494;-94
2024/03/28 07:01:51;;;;;;;4.50;2.40;;;9.10;99.90;;;;;;4974661;28;20152;-94
2024/03/28 07:04:16;;;;;;;8.55;2.88;;;9.00;99.90;;;;;;4980780;28;20086;-94
2024/03/28 07:06:42;;;;;;;7.63;2.50;;;9.10;99.90;;;;;;4990545;28;20026;-94
2024/03/28 07:09:08;;;;;;;5.63;1.98;;;9.10;99.90;;;;;;4982984;28;20135;-94
2024/03/28 07:11:34;;;;;;;3.08;1.98;;;8.50;99.90;;;;;;4972892;28;20054;-94
2024/03/28 07:14:02;;;;;;;2.28;1.98;;;9.10;99.90;;;;;;4982712;28;20035;-96
2024/03/28 07:16:28;;;;;;;3.75;2.22;;;9.20;99.90;;;;;;4981839;28;20475;-94
2024/03/28 07:18:55;;;;;;;3.67;1.92;;;9.20;99.90;;;;;;4979264;28;20027;-94
2024/03/28 07:21:21;;;;;;;2.08;1.60;;;9.30;99.90;;;;;;4978357;28;20038;-95
2024/03/28 07:23:47;;;;;;;3.75;2.15;;;9.30;99.90;;;;;;4977422;28;20051;-94
2024/03/28 07:26:13;;;;;;;2.15;1.70;;;9.30;99.90;;;;;;4982867;28;20034;-93
2024/03/28 07:28:39;;;;;;;2.65;1.60;;;9.30;99.90;;;;;;4982162;28;20027;-93
2024/03/28 07:31:04;;;;;;;2.60;1.60;;;9.30;99.90;;;;;;4980529;28;20030;-92
2024/03/28 07:33:30;;;;;;;1.65;1.45;;;9.30;99.90;;;;;;4979806;28;20057;-96
2024/03/28 07:35:55;;;;;;;1.70;1.30;;;9.30;99.90;;;;;;4977644;28;20027;-92
2024/03/28 07:38:21;;;;;;;2.38;1.65;;;9.30;99.90;;;;;;4977330;28;20027;-92
2024/03/28 07:40:48;;;;;;;5.90;2.22;;;9.30;99.90;;;;;;4980500;28;20027;-93
2024/03/28 07:43:14;;;;;;;2.80;1.50;;;9.40;99.90;;;;;;4963918;28;20074;-94
2024/03/28 07:45:41;;;;;;;1.20;1.10;;;9.30;99.90;;;;;;4974389;28;20035;-94
2024/03/28 07:48:07;;;;;;;1.52;1.02;;;9.30;99.90;;;;;;4977116;28;20050;-92
2024/03/28 07:50:32;;;;;;;0.95;0.90;;;9.20;99.90;;;;;;4976452;28;20027;-92
2024/03/28 07:52:58;;;;;;;3.60;0.70;;;9.20;99.90;;;;;;4985084;28;20014;-94
2024/03/28 07:55:38;;;;;;;0.93;0.70;;;9.10;99.90;;;;;;4976351;28;20031;-89
2024/03/28 07:58:05;;;;;;;2.60;0.95;;;9.10;99.90;;;;;;4966703;28;20090;-94
2024/03/28 08:00:31;;;;;;;1.55;1.00;;;11.10;99.90;;;;;;4991586;28;20095;-94
2024/03/28 08:02:56;;;;;;;1.25;0.90;;;10.00;99.90;;;;;;4979520;28;20034;-93
2024/03/28 08:05:22;;;;;;;0.70;0.70;;;10.30;99.90;;;;;;4981207;28;20423;-94
2024/03/28 08:07:48;;;;;;;1.00;0.88;;;10.60;99.90;;;;;;4976132;28;20105;-93
2024/03/28 08:10:14;;;;;;;1.02;0.90;;;10.40;99.90;;;;;;4976785;28;20070;-92
2024/03/28 08:12:39;;;;;;;1.13;1.02;;;9.20;99.90;;;;;;4978012;28;20019;-92
2024/03/28 08:15:05;;;;;;;1.50;1.20;;;10.50;99.90;;;;;;4976115;28;20027;-91
2024/03/28 08:17:33;;;;;;;4.95;1.10;;;8.90;99.90;;;;;;4975141;28;20022;-91
2024/03/28 08:20:00;;;;;;;3.40;1.00;;;10.70;99.90;;;;;;4975137;28;20034;-91
2024/03/28 08:22:26;;;;;;;1.55;1.45;;;8.50;99.90;;;;;;4968231;28;20027;-91
2024/03/28 08:24:52;;;;;;;1.55;0.90;;;8.90;99.90;;;;;;4974172;28;20118;-93
2024/03/28 08:27:17;;;;;;;1.77;1.05;;;8.90;99.90;;;;;;4984203;28;20031;-94
2024/03/28 08:29:43;;;;;;;1.35;1.00;;;8.90;99.90;;;;;;4990614;28;20050;-92
2024/03/28 08:32:12;;;;;;;2.45;1.08;;;8.90;99.90;;;;;;4976860;28;20041;-93
2024/03/28 08:34:37;;;;;;;5.13;1.08;;;8.90;99.90;;;;;;4975327;28;20102;-92
2024/03/28 08:37:03;;;;;;;2.10;1.42;;;8.90;99.90;;;;;;4975324;28;20062;-92
2024/03/28 08:39:30;;;;;;;1.88;1.20;;;8.90;99.90;;;;;;4974217;28;20026;-93
2024/03/28 08:41:56;;;;;;;1.05;0.95;;;8.90;99.90;;;;;;4974430;28;20055;-93
2024/03/28 08:44:24;;;;;;;2.00;1.50;;;9.00;99.90;;;;;;4974100;28;20031;-92
2024/03/28 08:46:50;;;;;;;1.98;1.58;;;8.90;99.90;;;;;;4968050;28;20070;-93
2024/03/28 08:49:16;;;;;;;1.05;0.85;;;8.90;99.90;;;;;;4975550;28;20031;-93
2024/03/28 08:51:42;;;;;;;1.67;1.20;;;8.80;99.90;;;;;;4981491;28;20042;-92
2024/03/28 08:54:12;;;;;;;2.22;1.50;;;8.80;99.90;;;;;;4994717;28;20125;-93
2024/03/28 08:56:39;;;;;;;5.72;1.77;;;8.70;99.90;;;;;;4987861;28;20023;-92
2024/03/28 08:59:05;;;;;;;6.05;1.42;;;8.80;99.90;;;;;;4980200;28;20030;-92
2024/03/28 09:01:30;;;;;;;2.67;1.45;;;8.80;99.90;;;;;;4979199;28;20023;-92
2024/03/28 09:03:56;;;;;;;1.23;1.17;;;8.80;99.90;;;;;;4979184;28;20039;-92
2024/03/28 09:06:23;;;;;;;1.63;1.52;;;8.80;99.90;;;;;;4978736;28;20026;-93
2024/03/28 09:08:48;;;;;;;1.60;1.50;;;8.80;99.90;;;;;;4980049;28;20481;-92
2024/03/28 09:11:15;;;;;;;1.50;1.40;;;8.80;99.90;;;;;;4978706;28;20038;-94
2024/03/28 09:13:41;;;;;;;3.03;1.38;;;8.90;99.90;;;;;;4980829;28;20521;-93
2024/03/28 09:16:07;;;;;;;3.97;1.50;;;8.90;99.90;;;;;;4982214;28;20033;-91
2024/03/28 09:18:34;;;;;;;2.25;1.88;;;8.90;99.90;;;;;;4980923;28;20113;-91
2024/03/28 09:21:01;;;;;;;2.03;1.90;;;8.90;99.90;;;;;;4981422;28;20030;-92
2024/03/28 09:23:27;;;;;;;2.85;2.03;;;8.90;99.90;;;;;;4979980;28;20406;-92
2024/03/28 09:25:52;;;;;;;4.88;2.10;;;8.90;99.90;;;;;;4978639;28;20023;-93
2024/03/28 09:28:18;;;;;;;3.25;1.90;;;8.90;99.90;;;;;;4977697;28;20110;-92
2024/03/28 09:30:44;;;;;;;3.38;2.47;;;8.90;99.90;;;;;;4965225;28;20102;-91
2024/03/28 09:33:11;;;;;;;4.68;2.78;;;8.90;99.90;;;;;;4975733;28;20034;-93
2024/03/28 09:35:36;;;;;;;3.30;2.00;;;8.80;99.90;;;;;;4976515;28;20626;-90
2024/03/28 09:38:03;;;;;;;3.00;2.35;;;8.60;99.90;;;;;;4971416;28;20109;-90
2024/03/28 09:40:30;;;;;;;5.05;2.72;;;8.80;99.90;;;;;;4962800;28;20024;-91
2024/03/28 09:42:57;;;;;;;2.83;2.50;;;8.70;99.90;;;;;;4976900;28;20544;-91
2024/03/28 09:45:27;;;;;;;2.95;2.65;;;8.80;99.90;;;;;;4975343;28;20062;-91
2024/03/28 09:47:54;;;;;;;2.97;2.78;;;8.80;99.90;;;;;;4975577;28;20031;-91
2024/03/28 09:50:23;;;;;;;3.13;2.92;;;8.80;99.90;;;;;;4987129;28;20027;-91
2024/03/28 09:52:54;;;;;;;2.20;2.05;;;8.90;99.90;;;;;;4983338;28;20383;-91
2024/03/28 09:55:19;;;;;;;3.58;2.72;;;8.90;99.90;;;;;;4976701;28;20038;-87
2024/03/28 09:57:45;;;;;;;3.13;2.63;;;8.90;99.90;;;;;;4978386;28;20030;-92
2024/03/28 10:00:12;;;;;;;3.47;2.22;;;9.00;99.90;;;;;;4978338;28;20409;-94
2024/03/28 10:02:42;;;;;;;3.70;2.20;;;9.00;99.90;;;;;;4976868;28;20074;-91
2024/03/28 10:05:09;;;;;;;2.25;1.90;;;9.00;99.90;;;;;;4976738;28;20033;-91
2024/03/28 10:07:35;;;;;;;1.88;1.70;;;9.10;99.90;;;;;;4978328;28;20332;-90
2024/03/28 10:10:01;;;;;;;3.10;2.20;;;9.60;99.90;;;;;;4978767;28;20030;-89
2024/03/28 10:12:28;;;;;;;5.32;2.20;;;9.20;99.90;;;;;;4978436;28;20019;-93
2024/03/28 10:14:54;;;;;;;3.55;2.60;;;9.20;99.90;;;;;;4976280;28;20030;-90
2024/03/28 10:17:20;;;;;;;4.63;2.40;;;9.20;99.90;;;;;;4979636;28;20023;-91
2024/03/28 10:20:07;;;;;;;9.50;2.75;;;9.30;99.90;;;;;;4977268;28;20027;-87
2024/03/28 10:22:41;;;;;;;4.35;2.20;;;9.30;99.90;;;;;;4976655;28;20023;-87
2024/03/28 10:25:17;;;;;;;4.82;2.88;;;9.30;99.90;;;;;;4963258;28;20034;-86
2024/03/28 10:27:43;;;;;;;4.95;2.40;;;9.40;99.90;;;;;;4975926;28;20027;-88
2024/03/28 10:30:11;;;;;;;4.15;3.00;;;9.70;99.90;;;;;;4976901;28;20030;-87
2024/03/28 10:32:37;;;;;;;5.20;3.08;;;9.50;99.90;;;;;;4974053;28;20029;-93
2024/03/28 10:35:09;;;;;;;6.20;2.78;;;9.50;99.90;;;;;;4975080;28;20449;-90
2024/03/28 10:37:34;;;;;;;7.85;2.53;;;9.60;99.90;;;;;;4976547;28;20022;-90
2024/03/28 10:40:00;;;;;;;6.72;1.95;;;9.70;99.90;;;;;;4984300;28;20063;-88
2024/03/28 10:42:29;;;;;;;7.68;2.20;;;9.60;99.90;;;;;;4977474;28;20102;-90
2024/03/28 10:44:59;;;;;;;11.32;2.10;;;9.60;99.90;;;;;;4976147;28;20078;-88
2024/03/28 10:47:29;;;;;;;14.55;2.25;;;10.90;99.90;;;;;;4975082;28;20109;-88
2024/03/28 10:50:05;;;;;;;15.37;2.70;;;9.70;99.90;;;;;;4975540;28;20387;-88
2024/03/28 10:52:42;;;;;;;10.13;1.98;;;9.60;99.90;;;;;;4965936;28;20039;-89
2024/03/28 10:55:11;;;;;;;17.40;2.05;;;9.80;99.90;;;;;;4964520;28;20050;-88
2024/03/28 10:57:40;;;;;;;5.28;1.60;;;9.80;99.90;;;;;;4969208;28;20029;-88
2024/03/28 11:00:09;;;;;;;11.63;1.70;;;9.80;99.90;;;;;;4971790;28;20113;-89
2024/03/28 11:02:37;;;;;;;5.20;1.85;;;9.90;99.90;;;;;;4975915;28;20085;-88
2024/03/28 11:05:05;;;;;;;6.07;1.30;;;9.90;99.90;;;;;;4975149;28;20081;-90
2024/03/28 11:07:33;;;;;;;8.88;1.83;;;10.00;99.90;;;;;;4973659;28;20288;-89
2024/03/28 11:09:59;;;;;;;8.35;1.95;;;10.00;99.90;;;;;;4948287;28;20051;-91
2024/03/28 11:12:29;;;;;;;4.25;1.48;;;10.00;99.90;;;;;;4967673;28;20051;-89
2024/03/28 11:15:04;;;;;;;6.47;1.85;;;9.20;99.90;;;;;;4969142;28;20093;-90
2024/03/28 11:17:30;;;;;;;3.85;1.70;;;10.10;99.90;;;;;;4966627;28;20023;-89
2024/03/28 11:20:08;;;;;;;7.90;1.75;;;9.10;99.90;;;;;;4968771;28;20475;-90
2024/03/28 11:22:40;;;;;;;8.82;2.17;;;9.80;99.90;;;;;;4966327;28;20400;-91
2024/03/28 11:25:28;;;;;;;5.15;1.88;;;10.80;99.90;;;;;;4969501;28;20105;-87
2024/03/28 11:28:08;;;;;;;14.88;2.38;;;10.20;99.90;;;;;;4974648;28;20105;-89
2024/03/28 11:30:53;;;;;;;5.57;2.13;;;10.20;99.90;;;;;;4972407;28;20030;-90
2024/03/28 11:33:37;;;;;;;8.45;1.90;;;10.20;99.90;;;;;;4979082;28;20043;-89
2024/03/28 11:36:05;;;;;;;7.93;2.00;;;10.20;99.90;;;;;;4981964;28;20070;-89
2024/03/28 11:38:33;;;;;;;4.20;1.30;;;10.20;99.90;;;;;;4972822;28;20033;-88
2024/03/28 11:40:59;;;;;;;6.10;1.42;;;10.40;99.90;;;;;;4957035;28;20050;-89
2024/03/28 11:43:25;;;;;;;9.50;2.05;;;10.30;99.90;;;;;;4970910;28;20054;-89
2024/03/28 11:45:55;;;;;;;3.35;0.80;;;10.40;99.90;;;;;;4973733;28;20586;-91
2024/03/28 11:48:22;;;;;;;7.45;1.05;;;10.40;99.90;;;;;;4973738;28;20049;-88
2024/03/28 11:50:52;;;;;;;6.07;1.20;;;10.50;99.90;;;;;;4974782;28;20026;-91
2024/03/28 11:53:18;;;;;;;3.38;0.98;;;10.50;99.90;;;;;;4974818;28;20558;-91
2024/03/28 11:55:52;;;;;;;2.83;0.95;;;10.50;99.90;;;;;;4974279;28;20039;-88
2024/03/28 11:58:24;;;;;;;1.92;1.05;;;10.50;99.90;;;;;;4975725;28;20027;-92
2024/03/28 12:00:55;;;;;;;1.70;0.93;;;10.60;99.90;;;;;;4977841;28;20026;-93
2024/03/28 12:03:21;;;;;;;4.28;1.48;;;11.20;99.90;;;;;;4973909;28;20554;-91
2024/03/28 12:05:49;;;;;;;3.90;1.25;;;10.60;99.90;;;;;;4975431;28;20057;-91
2024/03/28 12:08:16;;;;;;;2.95;1.45;;;10.70;99.90;;;;;;4967692;28;20038;-91
2024/03/28 12:10:42;;;;;;;3.08;1.08;;;10.70;99.90;;;;;;4975161;28;20134;-92
2024/03/28 12:13:08;;;;;;;9.43;2.00;;;10.70;99.90;;;;;;4977112;28;20038;-93
2024/03/28 12:15:37;;;;;;;2.42;1.52;;;10.90;99.90;;;;;;4977347;28;20684;-91
2024/03/28 12:18:03;;;;;;;4.32;1.50;;;12.70;99.90;;;;;;4976316;28;20019;-92
2024/03/28 12:20:32;;;;;;;2.80;1.23;;;11.00;99.90;;;;;;4975726;28;20054;-90
2024/03/28 12:23:03;;;;;;;6.75;2.05;;;11.60;99.90;;;;;;4975857;28;20055;-91
2024/03/28 12:25:32;;;;;;;6.40;1.95;;;11.20;99.90;;;;;;4977867;28;20030;-90
2024/03/28 12:28:15;;;;;;;4.20;1.77;;;12.90;99.90;;;;;;4976182;28;20133;-89
2024/03/28 12:30:49;;;;;;;5.10;2.00;;;11.70;99.90;;;;;;4975665;28;20120;-94
2024/03/28 12:33:16;;;;;;;3.17;1.73;;;11.30;99.90;;;;;;4976104;28;20070;-94
2024/03/28 12:35:44;;;;;;;3.65;1.50;;;10.30;99.90;;;;;;4975867;28;20173;-94
2024/03/28 12:38:17;;;;;;;3.42;0.93;;;11.80;99.90;;;;;;4975831;28;20141;-95
2024/03/28 12:40:48;;;;;;;3.72;1.00;;;12.60;99.90;;;;;;4990565;28;20320;-94
2024/03/28 12:43:21;;;;;;;2.65;0.98;;;11.80;99.90;;;;;;4988056;28;20050;-92
2024/03/28 12:45:48;;;;;;;4.53;0.98;;;13.10;99.90;;;;;;4976613;28;20117;-94
2024/03/28 12:48:14;;;;;;;3.28;0.88;;;11.30;99.90;;;;;;4970895;28;20032;-93
2024/03/28 12:50:45;;;;;;;5.72;0.90;;;11.10;99.90;;;;;;4976971;28;20027;-94
2024/03/28 12:53:11;;;;;;;2.30;1.00;;;12.30;99.90;;;;;;4976351;28;20046;-92
2024/03/28 12:55:37;;;;;;;3.38;0.88;;;12.00;99.90;;;;;;4978540;28;20117;-94
2024/03/28 12:58:02;;;;;;;2.42;1.23;;;11.60;99.90;;;;;;4978374;28;20026;-95
2024/03/28 13:00:28;;;;;;;1.85;0.82;;;11.80;99.90;;;;;;4980076;28;20031;-93
2024/03/28 13:02:57;;;;;;;1.95;1.00;;;12.90;99.90;;;;;;4975038;28;20119;-94
2024/03/28 13:05:23;;;;;;;5.13;0.82;;;13.50;99.90;;;;;;4972794;28;20155;-93
2024/03/28 13:07:52;;;;;;;3.60;0.70;;;11.00;99.90;;;;;;4958758;28;20105;-93
2024/03/28 13:10:18;;;;;;;0.65;0.65;;;12.90;99.90;;;;;;4969874;28;20023;-91
2024/03/28 13:12:49;;;;;;;2.30;0.60;;;13.40;99.90;;;;;;4976548;28;20530;-94
2024/03/28 13:15:15;;;;;;;1.02;0.70;;;13.50;99.90;;;;;;4973824;28;20075;-93
2024/03/28 13:17:41;;;;;;;1.52;0.77;;;12.80;99.90;;;;;;4973416;28;20038;-93
2024/03/28 13:20:09;;;;;;;2.60;0.60;;;13.50;99.90;;;;;;4984963;28;20035;-93
2024/03/28 13:22:35;;;;;;;1.33;0.65;;;12.30;99.90;;;;;;4980143;28;20023;-93
2024/03/28 13:25:00;;;;;;;3.50;0.70;;;14.20;99.90;;;;;;4987935;28;20045;-92
2024/03/28 13:27:35;;;;;;;0.90;0.75;;;14.20;99.90;;;;;;4979345;28;20074;-92
2024/03/28 13:30:08;;;;;;;1.17;0.88;;;14.10;99.90;;;;;;4970646;28;20471;-92
2024/03/28 13:32:35;;;;;;;0.50;0.50;;;12.40;99.90;;;;;;4969381;28;20384;-94
2024/03/28 13:35:00;;;;;;;0.80;0.70;;;13.70;99.90;;;;;;4972348;28;20163;-92
2024/03/28 13:37:26;;;;;;;2.42;0.65;;;12.20;99.90;;;;;;4975260;28;20035;-94
2024/03/28 13:39:52;;;;;;;2.63;0.70;;;13.30;99.90;;;;;;4976689;28;20030;-92
2024/03/28 13:42:20;;;;;;;1.30;0.80;;;13.60;99.90;;;;;;4977656;28;20066;-93
2024/03/28 13:44:45;;;;;;;0.88;0.60;;;12.20;99.90;;;;;;4979410;28;20096;-92